createdAt,value
2023-03-22T00:01:01.337Z,83.72
2023-03-22T00:04:03.914Z,83.42
2023-03-22T00:07:06.442Z,84.11
2023-03-22T00:10:09.832Z,83.75
2023-03-22T00:13:13.760Z,83.38
2023-03-22T00:16:17.460Z,84.13
2023-03-22T00:19:20.107Z,84.00
2023-03-22T00:22:22.707Z,83.53
2023-03-22T00:25:25.230Z,83.65
2023-03-22T00:28:29.159Z,83.36
2023-03-22T00:31:31.857Z,83.18
2023-03-22T00:34:34.589Z,83.36
2023-03-22T00:37:38.664Z,83.78
2023-03-22T00:40:41.767Z,83.33
2023-03-22T00:43:45.870Z,83.33
2023-03-22T00:46:48.410Z,83.40
2023-03-22T00:49:50.970Z,83.48
2023-03-22T00:52:53.484Z,82.88
2023-03-22T00:55:56.200Z,82.84
2023-03-22T00:59:00.278Z,83.46
2023-03-22T01:02:04.138Z,82.67
2023-03-22T01:05:07.228Z,82.47
2023-03-22T01:08:09.856Z,82.88
2023-03-22T01:11:12.438Z,82.48
2023-03-22T01:14:16.453Z,82.13
2023-03-22T01:17:19.018Z,82.17
2023-03-22T01:20:21.593Z,81.99
2023-03-22T01:23:24.111Z,82.01
2023-03-22T01:26:26.695Z,81.82
2023-03-22T01:29:31.183Z,82.17
2023-03-22T01:32:33.737Z,81.99
2023-03-22T01:35:36.473Z,82.23
2023-03-22T01:38:39.073Z,82.01
2023-03-22T01:41:41.655Z,82.46
2023-03-22T01:44:46.874Z,82.45
2023-03-22T01:47:51.501Z,82.13
2023-03-22T01:50:59.654Z,82.94
2023-03-22T01:54:03.896Z,82.65
2023-03-22T01:57:06.443Z,82.32
2023-03-22T02:00:13.877Z,82.97
2023-03-22T02:03:16.558Z,82.85
2023-03-22T02:06:19.226Z,83.61
2023-03-22T02:09:22.831Z,83.90
2023-03-22T02:12:29.217Z,83.79
2023-03-22T02:15:34.380Z,84.32
2023-03-22T02:18:44.821Z,83.93
2023-03-22T02:21:57.496Z,83.94
2023-03-22T02:25:14.771Z,84.10
2023-03-22T02:28:23.952Z,83.87
2023-03-22T02:31:46.249Z,83.53
2023-03-22T02:35:12.282Z,84.02
2023-03-22T02:38:42.565Z,83.54
2023-03-22T02:41:56.702Z,83.30
2023-03-22T02:45:01.008Z,83.35
2023-03-22T02:48:07.376Z,83.98
2023-03-22T02:51:11.474Z,84.04
2023-03-22T02:54:15.275Z,83.66
2023-03-22T02:57:21.457Z,83.93
2023-03-22T03:00:24.108Z,84.26
2023-03-22T03:03:29.165Z,83.35
2023-03-22T03:06:33.817Z,84.22
2023-03-22T03:09:36.548Z,83.73
2023-03-22T03:12:40.487Z,84.27
2023-03-22T03:15:44.045Z,84.32
2023-03-22T03:18:49.014Z,84.45
2023-03-22T03:21:53.520Z,83.89
2023-03-22T03:24:58.508Z,84.63
2023-03-22T03:28:05.068Z,83.90
2023-03-22T03:31:13.505Z,83.96
2023-03-22T03:34:18.181Z,84.59
2023-03-22T03:37:22.671Z,84.64
2023-03-22T03:40:26.864Z,84.73
2023-03-22T03:43:30.812Z,84.29
2023-03-22T03:46:33.405Z,84.37
2023-03-22T03:49:36.030Z,84.88
2023-03-22T03:52:38.845Z,84.36
2023-03-22T03:55:41.428Z,84.66
2023-03-22T03:58:45.483Z,85.66
2023-03-22T04:01:51.652Z,85.24
2023-03-22T04:04:54.267Z,85.68
2023-03-22T04:07:56.787Z,85.80
2023-03-22T04:10:59.308Z,85.92
2023-03-22T04:14:03.229Z,86.06
2023-03-22T04:17:05.854Z,86.09
2023-03-22T04:20:10.784Z,85.79
2023-03-22T04:23:13.303Z,85.58
2023-03-22T04:26:15.819Z,85.26
2023-03-22T04:29:19.761Z,85.32
2023-03-22T04:32:22.880Z,85.73
2023-03-22T04:35:25.447Z,86.04
2023-03-22T04:38:27.984Z,85.77
2023-03-22T04:41:30.620Z,85.08
2023-03-22T04:44:34.578Z,85.33
2023-03-22T04:47:37.161Z,85.20
2023-03-22T04:50:40.882Z,84.50
2023-03-22T04:53:43.582Z,85.10
2023-03-22T04:56:46.117Z,85.03
2023-03-22T04:59:50.032Z,84.23
2023-03-22T05:02:52.763Z,84.75
2023-03-22T05:05:56.708Z,84.55
2023-03-22T05:08:59.258Z,84.34
2023-03-22T05:12:01.797Z,84.57
2023-03-22T05:15:06.764Z,83.57
2023-03-22T05:18:09.496Z,83.89
2023-03-22T05:21:13.728Z,83.79
2023-03-22T05:24:16.430Z,83.34
2023-03-22T05:27:31.056Z,83.64
2023-03-22T05:30:35.019Z,83.50
2023-03-22T05:33:37.658Z,83.17
2023-03-22T05:36:40.279Z,82.89
2023-03-22T05:39:42.852Z,82.81
2023-03-22T05:42:45.478Z,82.37
2023-03-22T05:45:49.421Z,82.13
2023-03-22T05:48:52.080Z,82.14
2023-03-22T05:51:55.260Z,82.64
2023-03-22T05:54:57.790Z,82.50
2023-03-22T05:58:01.512Z,81.67
2023-03-22T06:01:07.248Z,82.13
2023-03-22T06:04:10.059Z,81.68
2023-03-22T06:07:12.600Z,81.42
2023-03-22T06:10:15.455Z,82.22
2023-03-22T06:13:18.175Z,81.63
2023-03-22T06:16:22.167Z,82.01
2023-03-22T06:19:25.493Z,81.87
2023-03-22T06:22:30.439Z,81.50
2023-03-22T06:25:33.143Z,81.59
2023-03-22T06:28:35.847Z,81.68
2023-03-22T06:31:39.800Z,82.39
2023-03-22T06:34:42.338Z,82.29
2023-03-22T06:37:44.922Z,81.67
2023-03-22T06:40:47.460Z,82.13
2023-03-22T06:43:49.970Z,82.20
2023-03-22T06:46:53.888Z,81.97
2023-03-22T06:49:56.520Z,82.34
2023-03-22T06:52:59.050Z,82.72
2023-03-22T06:56:01.651Z,82.94
2023-03-22T06:59:04.281Z,82.30
2023-03-22T07:02:08.200Z,82.72
2023-03-22T07:05:10.980Z,82.11
2023-03-22T07:08:13.571Z,82.66
2023-03-22T07:11:16.336Z,82.50
2023-03-22T07:14:18.883Z,82.47
2023-03-22T07:17:22.792Z,81.69
2023-03-22T07:20:25.328Z,82.39
2023-03-22T07:23:27.954Z,82.20
2023-03-22T07:26:31.482Z,82.11
2023-03-22T07:29:34.048Z,81.75
2023-03-22T07:32:38.021Z,81.66
2023-03-22T07:35:40.611Z,81.00
2023-03-22T07:38:43.233Z,81.17
2023-03-22T07:41:45.785Z,81.84
2023-03-22T07:44:49.675Z,81.22
2023-03-22T07:47:53.663Z,81.76
2023-03-22T07:50:56.952Z,81.73
2023-03-22T07:53:59.477Z,82.57
2023-03-22T07:57:02.059Z,82.02
2023-03-22T08:00:05.410Z,82.97
2023-03-22T08:03:10.683Z,83.62
2023-03-22T08:06:13.373Z,83.83
2023-03-22T08:09:15.985Z,84.39
2023-03-22T08:12:18.587Z,84.18
2023-03-22T08:15:22.616Z,85.32
2023-03-22T08:18:26.682Z,85.79
2023-03-22T08:21:29.272Z,86.34
2023-03-22T08:24:31.839Z,86.54
2023-03-22T08:27:34.377Z,87.29
2023-03-22T08:30:37.281Z,87.26
2023-03-22T08:33:41.634Z,87.71
2023-03-22T08:36:44.481Z,88.21
2023-03-22T08:39:47.059Z,88.58
2023-03-22T08:42:49.625Z,88.83
2023-03-22T08:45:52.176Z,88.52
2023-03-22T08:48:58.813Z,89.08
2023-03-22T08:52:01.341Z,89.36
2023-03-22T08:55:04.049Z,88.87
2023-03-22T08:58:06.626Z,89.33
2023-03-22T09:01:12.244Z,89.82
2023-03-22T09:04:16.309Z,90.00
2023-03-22T09:07:20.217Z,89.48
2023-03-22T09:10:22.947Z,89.70
2023-03-22T09:13:25.688Z,89.83
2023-03-22T09:16:28.285Z,90.54
2023-03-22T09:19:32.456Z,90.59
2023-03-22T09:22:35.054Z,89.94
2023-03-22T09:25:37.904Z,90.24
2023-03-22T09:28:40.773Z,90.05
2023-03-22T09:31:43.445Z,90.23
2023-03-22T09:34:47.410Z,90.64
2023-03-22T09:37:53.057Z,90.88
2023-03-22T09:41:00.658Z,90.77
2023-03-22T09:44:05.036Z,90.23
2023-03-22T09:47:08.037Z,90.80
2023-03-22T09:50:14.437Z,90.39
2023-03-22T09:53:17.468Z,90.21
2023-03-22T09:56:23.061Z,90.73
2023-03-22T09:59:27.393Z,91.26
2023-03-22T10:02:38.694Z,90.63
2023-03-22T10:05:44.221Z,90.44
2023-03-22T10:08:51.637Z,91.31
2023-03-22T10:11:54.652Z,91.28
2023-03-22T10:15:01.330Z,90.93
2023-03-22T10:18:06.246Z,91.87
2023-03-22T10:21:10.953Z,92.03
2023-03-22T10:24:15.984Z,91.61
2023-03-22T10:27:19.336Z,91.72
2023-03-22T10:30:22.796Z,91.81
2023-03-22T10:33:32.620Z,91.88
2023-03-22T10:36:37.429Z,92.31
2023-03-22T10:39:40.668Z,91.85
2023-03-22T10:42:53.473Z,92.04
2023-03-22T10:45:56.632Z,91.41
2023-03-22T10:48:59.781Z,91.56
2023-03-22T10:52:05.964Z,91.82
2023-03-22T10:55:11.308Z,92.34
2023-03-22T10:58:14.835Z,91.62
2023-03-22T11:01:18.125Z,91.66
2023-03-22T11:04:20.745Z,91.41
2023-03-22T11:07:35.406Z,90.51
2023-03-22T11:10:38.073Z,89.93
2023-03-22T11:13:40.674Z,90.04
2023-03-22T11:16:44.791Z,89.61
2023-03-22T11:19:52.680Z,89.79
2023-03-22T11:22:57.284Z,89.57
2023-03-22T11:26:00.979Z,89.25
2023-03-22T11:29:06.809Z,89.21
2023-03-22T11:32:20.745Z,88.84
2023-03-22T11:35:25.527Z,88.93
2023-03-22T11:38:32.014Z,89.37
2023-03-22T11:41:36.220Z,89.22
2023-03-22T11:44:38.765Z,89.03
2023-03-22T11:47:41.512Z,89.42
2023-03-22T11:50:44.890Z,88.84
2023-03-22T11:53:48.948Z,89.34
2023-03-22T11:56:52.236Z,88.66
2023-03-22T11:59:57.943Z,89.25
2023-03-22T12:03:02.464Z,89.26
2023-03-22T12:06:06.552Z,89.24
2023-03-22T12:09:14.305Z,88.67
2023-03-22T12:12:19.002Z,89.03
2023-03-22T12:15:22.687Z,88.36
2023-03-22T12:18:27.506Z,88.28
2023-03-22T12:57:54.654Z,90.20
2023-03-22T13:00:58.520Z,92.05
2023-03-22T13:04:01.343Z,92.66
2023-03-22T13:07:12.415Z,92.47
2023-03-22T13:10:41.522Z,92.16
2023-03-22T13:13:48.853Z,91.46
2023-03-22T13:16:52.974Z,91.43
2023-03-22T13:19:56.180Z,90.52
2023-03-22T13:23:04.009Z,90.13
2023-03-22T13:26:06.788Z,90.30
2023-03-22T13:29:12.508Z,89.91
2023-03-22T13:32:29.855Z,89.42
2023-03-22T13:35:43.581Z,89.56
2023-03-22T13:38:46.981Z,88.72
2023-03-22T13:41:52.165Z,88.92
2023-03-22T13:44:58.553Z,89.05
2023-03-22T13:48:05.763Z,88.25
2023-03-22T13:51:13.482Z,88.39
2023-03-22T13:54:19.898Z,88.51
2023-03-22T13:57:47.631Z,88.62
2023-03-22T14:00:54.136Z,88.47
2023-03-22T14:03:58.358Z,88.10
2023-03-22T14:07:06.900Z,88.52
2023-03-22T14:10:13.721Z,88.00
2023-03-22T14:13:17.741Z,88.00
2023-03-22T14:16:23.334Z,88.14
2023-03-22T14:19:27.906Z,88.16
